createdAt,value
2022-10-21T00:04:53.206Z,49.84
2022-10-21T00:11:17.532Z,49.92
2022-10-21T00:17:41.903Z,50.00
2022-10-21T00:24:06.285Z,50.08
2022-10-21T00:30:30.888Z,50.15
2022-10-21T00:36:55.407Z,50.30
2022-10-21T00:43:19.807Z,50.62
2022-10-21T00:49:44.122Z,50.90
2022-10-21T00:56:09.935Z,51.07
2022-10-21T01:02:37.150Z,51.28
2022-10-21T01:09:01.487Z,51.40
2022-10-21T01:15:37.962Z,51.37
2022-10-21T01:22:17.519Z,51.32
2022-10-21T01:28:41.807Z,51.41
2022-10-21T01:35:16.907Z,51.44
2022-10-21T01:41:39.868Z,51.50
2022-10-21T01:48:07.054Z,51.60
2022-10-21T01:54:32.012Z,51.61
2022-10-21T02:00:56.515Z,51.63
2022-10-21T02:07:20.635Z,51.64
2022-10-21T02:13:45.010Z,51.72
2022-10-21T02:20:15.230Z,51.90
2022-10-21T02:26:39.571Z,51.89
2022-10-21T02:33:24.978Z,51.91
2022-10-21T02:39:49.276Z,51.94
2022-10-21T02:46:13.596Z,52.01
2022-10-21T02:52:38.009Z,52.03
2022-10-21T02:59:02.312Z,52.06
2022-10-21T03:05:26.696Z,52.07
2022-10-21T03:11:51.052Z,52.08
2022-10-21T03:18:15.449Z,52.07
2022-10-21T03:24:39.776Z,51.99
2022-10-21T03:31:04.084Z,51.87
2022-10-21T03:37:28.389Z,51.80
2022-10-21T03:43:52.784Z,51.89
2022-10-21T03:50:18.317Z,52.13
2022-10-21T03:56:46.777Z,52.24
2022-10-21T04:03:11.064Z,52.24
2022-10-21T04:09:35.363Z,52.15
2022-10-21T04:15:59.674Z,52.08
2022-10-21T04:22:24.009Z,52.04
2022-10-21T04:28:43.253Z,52.00
2022-10-21T04:35:07.594Z,52.05
2022-10-21T04:41:40.721Z,52.09
2022-10-21T04:48:05.018Z,52.00
2022-10-21T04:54:29.322Z,51.81
2022-10-21T05:00:53.705Z,51.54
2022-10-21T05:07:18.291Z,51.22
2022-10-21T05:13:42.577Z,50.89
2022-10-21T05:20:06.979Z,50.60
2022-10-21T05:26:31.289Z,50.26
2022-10-21T05:32:55.556Z,50.00
2022-10-21T05:39:19.891Z,49.71
2022-10-21T05:45:44.330Z,49.41
2022-10-21T05:52:08.724Z,49.19
2022-10-21T05:58:33.049Z,49.01
2022-10-21T06:04:57.473Z,48.80
2022-10-21T06:11:21.822Z,48.68
2022-10-21T06:17:46.189Z,48.54
2022-10-21T06:24:10.605Z,48.22
2022-10-21T06:30:34.910Z,48.14
2022-10-21T06:36:55.234Z,48.27
2022-10-21T06:43:19.611Z,48.54
2022-10-21T06:49:43.968Z,48.53
2022-10-21T06:56:08.215Z,48.38
2022-10-21T07:02:32.516Z,48.15
2022-10-21T07:08:58.823Z,47.92
2022-10-21T07:15:24.036Z,47.72
2022-10-21T07:21:48.333Z,47.46
2022-10-21T07:28:12.633Z,47.06
2022-10-21T07:34:38.364Z,46.91
2022-10-21T07:41:02.605Z,46.83
2022-10-21T07:47:26.857Z,46.77
2022-10-21T07:53:51.129Z,46.69
2022-10-21T08:00:15.413Z,46.55
2022-10-21T08:06:40.874Z,46.40
2022-10-21T08:13:05.176Z,46.29
2022-10-21T08:19:29.412Z,46.17
2022-10-21T08:25:53.977Z,46.08
2022-10-21T08:32:19.955Z,45.98
2022-10-21T08:38:44.433Z,45.83
2022-10-21T08:45:04.080Z,45.71
2022-10-21T08:51:40.473Z,45.63
2022-10-21T08:58:05.903Z,45.58
2022-10-21T09:04:36.155Z,45.53
2022-10-21T09:11:12.158Z,45.38
2022-10-21T09:17:38.228Z,45.22
2022-10-21T09:24:11.613Z,45.16
2022-10-21T09:30:35.930Z,45.27
2022-10-21T09:37:02.914Z,45.01
2022-10-21T09:43:26.823Z,44.76
2022-10-21T09:50:07.310Z,44.57
2022-10-21T09:56:32.329Z,44.50
2022-10-21T10:02:56.645Z,44.42
2022-10-21T10:09:36.724Z,44.32
2022-10-21T10:16:03.512Z,44.20
2022-10-21T10:22:27.727Z,44.09
2022-10-21T10:28:51.965Z,43.99
2022-10-21T10:35:16.349Z,43.89
2022-10-21T10:41:43.491Z,43.85
2022-10-21T10:48:10.457Z,43.85
2022-10-21T10:54:40.379Z,43.80
2022-10-21T11:01:07.567Z,43.97
2022-10-21T11:07:34.655Z,44.36
2022-10-21T11:20:26.965Z,45.39
2022-10-21T11:26:57.210Z,46.38
2022-10-21T11:33:24.299Z,47.16
2022-10-21T11:39:54.645Z,47.66
2022-10-21T11:46:37.402Z,48.32
2022-10-21T11:53:07.937Z,48.75
2022-10-21T11:59:45.080Z,49.21
2022-10-21T12:06:17.306Z,49.29
2022-10-21T12:12:47.643Z,49.53
2022-10-21T12:19:12.300Z,49.54
2022-10-21T12:25:39.401Z,49.52
2022-10-21T12:32:08.580Z,49.47
2022-10-21T12:39:00.580Z,49.42
2022-10-21T12:45:28.495Z,49.41
2022-10-21T12:51:32.473Z,49.42
2022-10-21T12:58:02.676Z,49.35
2022-10-21T13:04:42.148Z,49.43
2022-10-21T13:11:06.460Z,49.46
2022-10-21T13:24:31.930Z,49.36
2022-10-21T13:31:06.963Z,49.09
2022-10-21T13:37:36.511Z,48.81
2022-10-21T13:44:04.213Z,48.68
2022-10-21T13:50:31.684Z,48.47
2022-10-21T14:03:50.728Z,47.98
2022-10-21T14:10:21.556Z,47.70
2022-10-21T14:17:04.143Z,47.42
2022-10-21T14:23:28.543Z,47.15
2022-10-21T14:29:54.199Z,46.85
2022-10-21T14:36:21.401Z,46.54
2022-10-21T14:42:52.430Z,46.30
2022-10-21T14:49:35.751Z,46.11
2022-10-21T14:56:02.057Z,46.04
2022-10-21T15:09:19.124Z,45.93
2022-10-21T15:15:48.344Z,45.86
2022-10-21T15:22:39.655Z,45.43
2022-10-21T15:29:05.990Z,45.68
2022-10-21T15:36:00.819Z,45.78
2022-10-21T15:49:40.257Z,46.01
2022-10-21T15:56:39.837Z,46.12
2022-10-21T16:03:04.155Z,46.28
2022-10-21T16:09:40.700Z,46.53
2022-10-21T16:23:10.120Z,47.06
2022-10-21T16:30:08.638Z,47.05
2022-10-21T16:43:30.976Z,46.69
2022-10-21T16:49:47.993Z,46.50
2022-10-21T16:56:15.369Z,46.29
2022-10-21T17:02:44.908Z,46.10
2022-10-21T17:09:15.925Z,46.01
2022-10-21T17:15:42.471Z,46.00
2022-10-21T17:22:07.777Z,46.00
2022-10-21T17:28:32.823Z,46.09
2022-10-21T17:34:59.595Z,46.18
2022-10-21T17:41:23.909Z,46.27
2022-10-21T17:47:49.991Z,46.47
2022-10-21T17:54:14.252Z,46.73
2022-10-21T18:00:46.621Z,46.91
2022-10-21T18:07:12.304Z,47.05
2022-10-21T18:13:40.011Z,47.37
2022-10-21T18:20:08.273Z,47.56
2022-10-21T18:26:24.912Z,47.71
2022-10-21T18:32:49.114Z,47.88
2022-10-21T18:39:13.463Z,48.12
2022-10-21T18:45:30.129Z,48.22
2022-10-21T18:51:54.460Z,48.25
2022-10-21T18:58:23.994Z,48.30
2022-10-21T19:04:49.679Z,48.32
2022-10-21T19:11:38.510Z,48.37
2022-10-21T19:18:03.855Z,48.55
2022-10-21T19:31:20.917Z,48.63
2022-10-21T19:37:47.132Z,48.63
2022-10-21T19:44:14.339Z,48.63
2022-10-21T19:50:38.845Z,48.63
2022-10-21T19:57:03.356Z,48.71
2022-10-21T20:03:28.712Z,48.77
2022-10-21T20:09:55.654Z,48.86
2022-10-21T20:15:52.302Z,48.97
2022-10-21T20:22:20.623Z,49.00
2022-10-21T20:28:27.799Z,48.90
2022-10-21T20:41:15.867Z,48.69
2022-10-21T20:47:40.667Z,48.63
2022-10-21T20:54:06.102Z,48.65
2022-10-21T21:00:30.309Z,48.64
2022-10-21T21:07:12.044Z,48.62
2022-10-21T21:13:37.841Z,48.60
2022-10-21T21:20:03.480Z,48.57
2022-10-21T21:26:29.761Z,48.55
2022-10-21T21:32:54.350Z,48.48
2022-10-21T21:39:18.588Z,48.50
2022-10-21T21:45:55.574Z,48.52
2022-10-21T21:52:22.864Z,48.56
2022-10-21T21:58:52.325Z,48.59
2022-10-21T22:05:40.836Z,48.55
2022-10-21T22:12:22.966Z,48.54
2022-10-21T22:25:42.443Z,48.53
2022-10-21T22:32:06.978Z,48.56
2022-10-21T22:38:34.626Z,48.61
2022-10-21T22:52:01.429Z,48.81
2022-10-21T23:05:23.777Z,48.99
2022-10-21T23:11:49.306Z,49.09
2022-10-21T23:17:44.311Z,49.19
2022-10-21T23:24:13.861Z,49.31
2022-10-21T23:30:38.260Z,49.42
2022-10-21T23:36:42.560Z,49.55
2022-10-21T23:43:10.107Z,49.65
2022-10-21T23:49:30.366Z,49.71
2022-10-21T23:55:59.581Z,49.77
